Time;durP1;ratioP1;P1;durP2;ratioP2;P2;SDS_P1;SDS_P2;PMS_P1;PMS_P2;Temp;Humidity;BMP_temperature;BMP_pressure;BME280_temperature;BME280_humidity;BME280_pressure;Samples;Min_cycle;Max_cycle;Signal;HPM_P1;HPM_P2
2021/08/10 04:02:57;;;;;;;15.50;14.53;;;14.70;99.90;;;;;;5661757;23;20507;-69
2021/08/10 04:05:24;;;;;;;16.40;15.60;;;14.70;99.90;;;;;;4957161;28;20479;-68
2021/08/10 04:07:51;;;;;;;16.93;15.83;;;14.70;99.90;;;;;;4972747;28;20460;-69
2021/08/10 04:10:18;;;;;;;15.77;14.90;;;14.60;99.90;;;;;;4966218;28;20463;-69
2021/08/10 04:12:45;;;;;;;16.93;15.90;;;14.70;99.90;;;;;;4955884;28;20975;-69
2021/08/10 04:15:14;;;;;;;17.03;16.03;;;14.80;99.90;;;;;;4953140;29;20453;-69
2021/08/10 04:17:42;;;;;;;16.17;15.20;;;14.90;99.90;;;;;;4952839;29;20488;-69
2021/08/10 04:20:11;;;;;;;17.07;15.90;;;14.90;99.90;;;;;;4953257;29;20491;-69
2021/08/10 04:22:41;;;;;;;16.17;15.10;;;15.00;99.90;;;;;;4953223;29;20453;-68
2021/08/10 04:25:08;;;;;;;17.57;16.47;;;15.00;99.90;;;;;;4953019;29;20491;-71
2021/08/10 04:27:35;;;;;;;17.60;16.30;;;15.10;99.90;;;;;;4952988;29;20491;-68
2021/08/10 04:30:02;;;;;;;16.23;15.30;;;15.10;99.90;;;;;;4952970;29;20568;-68
2021/08/10 04:32:28;;;;;;;15.97;15.07;;;15.20;99.90;;;;;;4952441;29;20463;-68
2021/08/10 04:34:55;;;;;;;16.67;15.80;;;15.20;99.90;;;;;;4953091;29;20456;-69
2021/08/10 04:37:23;;;;;;;17.40;16.17;;;15.20;99.90;;;;;;4953104;29;20472;-69
2021/08/10 04:39:50;;;;;;;18.07;16.87;;;15.30;99.90;;;;;;4952925;29;20493;-70
2021/08/10 04:42:16;;;;;;;17.37;16.20;;;15.30;99.90;;;;;;4952848;29;20468;-70
2021/08/10 04:44:43;;;;;;;17.03;15.83;;;15.40;99.90;;;;;;4952437;29;20460;-70
2021/08/10 04:47:10;;;;;;;17.83;16.63;;;15.40;99.90;;;;;;4952515;29;20464;-70
2021/08/10 04:49:36;;;;;;;16.27;14.97;;;15.40;99.90;;;;;;4952797;29;20952;-69
2021/08/10 04:52:03;;;;;;;18.97;17.43;;;15.50;99.90;;;;;;4952290;29;20957;-70
2021/08/10 04:54:33;;;;;;;17.07;16.07;;;15.50;99.90;;;;;;4952508;29;20862;-70
2021/08/10 04:57:00;;;;;;;16.57;15.50;;;15.60;99.90;;;;;;4952048;29;20471;-71
2021/08/10 04:59:27;;;;;;;16.57;15.30;;;15.60;99.90;;;;;;4952249;29;20499;-71
2021/08/10 05:01:54;;;;;;;16.00;14.27;;;15.60;99.90;;;;;;4952554;29;20480;-71
2021/08/10 05:04:20;;;;;;;19.40;17.87;;;15.60;99.90;;;;;;4952244;29;20487;-70
2021/08/10 05:06:47;;;;;;;17.03;15.93;;;15.60;99.90;;;;;;4951992;29;20457;-70
2021/08/10 05:09:14;;;;;;;16.43;15.47;;;15.60;99.90;;;;;;4952305;29;20475;-69
2021/08/10 05:11:42;;;;;;;16.93;15.90;;;15.60;99.90;;;;;;4961675;28;20873;-69
2021/08/10 05:14:08;;;;;;;17.47;15.77;;;15.70;99.90;;;;;;4953205;28;20956;-70
2021/08/10 05:16:35;;;;;;;19.03;17.57;;;15.80;99.90;;;;;;4951990;28;20463;-71
2021/08/10 05:19:02;;;;;;;18.57;17.30;;;15.80;99.90;;;;;;4951979;29;20956;-71
2021/08/10 05:21:28;;;;;;;23.03;20.93;;;15.90;99.90;;;;;;4951908;29;20547;-71
2021/08/10 05:23:55;;;;;;;22.03;20.40;;;15.90;99.90;;;;;;4952099;29;20463;-69
2021/08/10 05:26:24;;;;;;;20.20;18.73;;;15.90;99.90;;;;;;4952324;29;20463;-69
2021/08/10 05:28:52;;;;;;;18.07;16.80;;;16.00;99.90;;;;;;4952257;29;20537;-70
2021/08/10 05:31:18;;;;;;;20.20;18.60;;;16.10;99.90;;;;;;4952063;29;20453;-69
2021/08/10 05:33:45;;;;;;;20.60;18.60;;;16.10;99.90;;;;;;4951790;29;20464;-70
2021/08/10 05:36:12;;;;;;;20.00;18.40;;;16.20;99.90;;;;;;4951618;29;20519;-70
2021/08/10 05:38:42;;;;;;;19.10;17.60;;;16.30;99.90;;;;;;4952175;29;20483;-70
2021/08/10 05:41:08;;;;;;;18.10;16.80;;;16.30;99.90;;;;;;4951994;29;20868;-70
2021/08/10 05:43:35;;;;;;;22.00;19.70;;;16.40;99.90;;;;;;4952039;29;20456;-71
2021/08/10 05:46:03;;;;;;;22.40;20.23;;;16.50;99.90;;;;;;4951508;29;20803;-70
2021/08/10 05:48:30;;;;;;;17.93;16.63;;;16.70;99.90;;;;;;4951580;29;20846;-70
2021/08/10 05:50:58;;;;;;;17.13;15.93;;;16.70;99.90;;;;;;4951728;29;20936;-70
2021/08/10 05:53:24;;;;;;;16.67;15.23;;;16.70;99.90;;;;;;4951982;29;20453;-70
2021/08/10 05:55:51;;;;;;;17.10;15.73;;;16.80;99.90;;;;;;4952180;29;20448;-70
2021/08/10 05:58:18;;;;;;;16.47;15.37;;;16.90;99.90;;;;;;4951841;29;20459;-70
2021/08/10 06:00:44;;;;;;;16.57;15.40;;;17.00;99.90;;;;;;4951719;29;20755;-69
2021/08/10 06:03:12;;;;;;;17.50;16.20;;;17.10;99.90;;;;;;4951801;29;20511;-70
2021/08/10 06:05:39;;;;;;;20.43;18.73;;;17.10;99.90;;;;;;4951888;29;20461;-71
2021/08/10 06:08:06;;;;;;;20.33;18.50;;;17.20;99.90;;;;;;4952072;29;20886;-70
2021/08/10 06:10:33;;;;;;;17.50;16.30;;;17.20;99.90;;;;;;4951647;29;20457;-71
2021/08/10 06:13:00;;;;;;;17.43;16.10;;;17.20;99.90;;;;;;4961947;28;20527;-71
2021/08/10 06:15:27;;;;;;;18.10;16.20;;;17.20;99.90;;;;;;4951692;29;20556;-71
2021/08/10 06:17:54;;;;;;;21.40;18.80;;;17.30;99.90;;;;;;4951831;29;20449;-70
2021/08/10 06:20:23;;;;;;;21.03;18.97;;;17.40;99.90;;;;;;4951433;29;20496;-70
2021/08/10 06:22:50;;;;;;;18.90;16.83;;;17.50;99.90;;;;;;4951361;29;20457;-71
2021/08/10 06:25:17;;;;;;;18.30;16.83;;;17.70;99.90;;;;;;4971191;28;20463;-70
2021/08/10 06:27:43;;;;;;;20.07;17.20;;;17.80;99.90;;;;;;4987979;28;20454;-70
2021/08/10 06:30:13;;;;;;;17.80;16.50;;;17.90;99.90;;;;;;4974041;28;20455;-70
2021/08/10 06:32:39;;;;;;;20.10;18.13;;;18.00;99.90;;;;;;4981634;28;20547;-71
2021/08/10 06:35:06;;;;;;;19.60;17.77;;;18.10;99.90;;;;;;4993834;28;20455;-70
2021/08/10 06:37:34;;;;;;;22.67;20.70;;;18.10;99.90;;;;;;4993844;28;20451;-70
2021/08/10 06:40:01;;;;;;;21.07;19.60;;;18.40;99.90;;;;;;4993803;28;20486;-72
2021/08/10 06:42:28;;;;;;;18.53;16.93;;;18.60;99.90;;;;;;4974625;28;20955;-72
2021/08/10 06:44:54;;;;;;;22.40;20.20;;;18.80;99.90;;;;;;4974705;28;20466;-71
2021/08/10 06:47:21;;;;;;;21.73;19.73;;;18.80;99.90;;;;;;4974504;28;20451;-71
2021/08/10 06:49:48;;;;;;;23.57;21.70;;;18.80;99.90;;;;;;4974388;28;20459;-70
2021/08/10 06:52:14;;;;;;;23.87;21.50;;;18.80;99.90;;;;;;4974348;28;20875;-72
2021/08/10 06:54:42;;;;;;;23.03;20.57;;;19.20;99.90;;;;;;4974292;28;20460;-72
2021/08/10 06:57:10;;;;;;;20.33;18.53;;;19.50;99.90;;;;;;4974670;28;20525;-72
2021/08/10 06:59:37;;;;;;;18.70;17.30;;;19.90;99.90;;;;;;4992336;28;20498;-73
2021/08/10 07:02:04;;;;;;;21.00;18.90;;;20.50;99.90;;;;;;4993146;28;20505;-73
2021/08/10 07:04:31;;;;;;;19.43;18.07;;;20.60;99.90;;;;;;4993194;28;20489;-72
2021/08/10 07:07:00;;;;;;;19.10;17.40;;;20.50;99.90;;;;;;4993637;28;20451;-72
2021/08/10 07:09:27;;;;;;;17.73;16.57;;;20.20;99.90;;;;;;4993558;28;20455;-72
2021/08/10 07:11:55;;;;;;;19.40;17.77;;;20.60;99.90;;;;;;4993383;28;20451;-72
2021/08/10 07:14:22;;;;;;;20.30;18.37;;;21.00;99.90;;;;;;4993443;28;20454;-72
2021/08/10 07:16:48;;;;;;;18.60;17.20;;;21.30;99.90;;;;;;4993264;28;20455;-72
2021/08/10 07:19:15;;;;;;;19.33;18.10;;;21.00;99.90;;;;;;4993339;28;20457;-72
2021/08/10 07:21:43;;;;;;;19.33;17.70;;;21.40;99.90;;;;;;4993022;28;20486;-73
2021/08/10 07:24:09;;;;;;;24.60;22.50;;;21.90;99.90;;;;;;4993266;28;20462;-73
2021/08/10 07:26:36;;;;;;;16.90;15.93;;;22.30;99.90;;;;;;4993350;28;20460;-72
2021/08/10 07:29:04;;;;;;;15.00;14.20;;;22.10;99.90;;;;;;4993046;28;20474;-72
2021/08/10 07:31:31;;;;;;;14.97;14.10;;;21.80;99.90;;;;;;4993311;28;20474;-72
2021/08/10 07:33:58;;;;;;;15.93;15.13;;;21.40;99.90;;;;;;4964780;28;20471;-72
2021/08/10 07:36:25;;;;;;;15.23;14.40;;;21.60;99.90;;;;;;4972384;28;20471;-72
2021/08/10 07:38:51;;;;;;;14.33;13.50;;;21.60;99.90;;;;;;4974517;28;20452;-73
2021/08/10 07:41:18;;;;;;;15.00;13.93;;;21.40;99.90;;;;;;4965610;28;20488;-72
2021/08/10 07:43:45;;;;;;;14.90;13.33;;;21.40;99.90;;;;;;4954863;29;20637;-72
2021/08/10 07:46:13;;;;;;;15.80;14.37;;;21.10;99.90;;;;;;4955007;29;20905;-72
2021/08/10 07:48:39;;;;;;;14.67;13.40;;;21.00;99.90;;;;;;4954787;29;20464;-73
2021/08/10 07:51:06;;;;;;;14.37;13.63;;;20.80;99.90;;;;;;4954694;29;20452;-73
2021/08/10 07:53:33;;;;;;;14.70;14.10;;;21.00;99.90;;;;;;4954598;29;20951;-73
2021/08/10 07:55:59;;;;;;;13.87;13.17;;;21.20;99.90;;;;;;4954760;29;20854;-72
2021/08/10 07:58:26;;;;;;;14.30;13.70;;;21.50;99.90;;;;;;4954470;29;20452;-72
2021/08/10 08:00:53;;;;;;;13.77;13.07;;;21.60;99.90;;;;;;4954110;29;20563;-72
2021/08/10 08:03:21;;;;;;;14.60;13.60;;;21.90;99.90;;;;;;4954143;29;20848;-73
2021/08/10 08:05:48;;;;;;;16.63;15.53;;;21.90;99.90;;;;;;4954814;29;20444;-73
2021/08/10 08:08:15;;;;;;;15.93;14.70;;;22.00;99.90;;;;;;4973203;28;20487;-72
2021/08/10 08:10:41;;;;;;;14.90;14.10;;;22.00;99.90;;;;;;4973797;28;20451;-73
2021/08/10 08:13:08;;;;;;;15.10;14.20;;;21.90;99.90;;;;;;4971323;28;20463;-73
2021/08/10 08:15:34;;;;;;;15.17;14.20;;;21.60;99.90;;;;;;4972844;28;20455;-73
2021/08/10 08:18:01;;;;;;;15.13;14.37;;;21.80;99.90;;;;;;4972602;28;20550;-73
2021/08/10 08:20:29;;;;;;;15.23;14.00;;;22.20;99.90;;;;;;4972435;28;20487;-72
2021/08/10 08:22:56;;;;;;;14.47;13.70;;;22.10;99.90;;;;;;4972661;28;20460;-72
2021/08/10 08:25:23;;;;;;;15.37;14.10;;;22.40;99.90;;;;;;4972750;28;20462;-73
2021/08/10 08:27:49;;;;;;;14.57;13.63;;;23.10;99.90;;;;;;4962336;28;20444;-72
2021/08/10 08:30:18;;;;;;;14.83;14.03;;;23.60;99.90;;;;;;4961031;28;20448;-73
2021/08/10 08:32:44;;;;;;;13.77;13.07;;;24.30;99.90;;;;;;4957888;28;20484;-73
2021/08/10 08:35:11;;;;;;;15.23;14.33;;;25.20;99.90;;;;;;4958072;28;20451;-73
2021/08/10 08:37:39;;;;;;;13.87;13.10;;;25.30;99.50;;;;;;4953311;29;20972;-73
2021/08/10 08:40:08;;;;;;;14.10;13.37;;;24.70;99.90;;;;;;4953199;29;20602;-72
2021/08/10 08:42:35;;;;;;;14.47;13.87;;;24.40;99.90;;;;;;4952957;29;20488;-75
2021/08/10 08:45:01;;;;;;;15.13;14.30;;;25.00;99.40;;;;;;4953409;29;20463;-73
2021/08/10 08:47:28;;;;;;;14.37;13.30;;;25.20;99.20;;;;;;4953116;29;20547;-73
2021/08/10 08:49:57;;;;;;;13.43;12.67;;;25.30;98.80;;;;;;4953345;29;20449;-73
2021/08/10 08:52:24;;;;;;;13.33;12.63;;;25.40;98.10;;;;;;4952511;28;20453;-73
2021/08/10 08:54:53;;;;;;;14.53;13.60;;;25.60;97.90;;;;;;4953469;29;20461;-73
2021/08/10 08:57:19;;;;;;;14.47;13.70;;;25.80;97.30;;;;;;4953254;29;20887;-72
2021/08/10 08:59:47;;;;;;;14.20;13.30;;;25.70;97.40;;;;;;4952831;29;20678;-72
2021/08/10 09:02:17;;;;;;;15.87;14.87;;;25.80;96.70;;;;;;4952513;29;21035;-73
2021/08/10 09:04:44;;;;;;;15.43;14.43;;;26.20;96.20;;;;;;4952414;29;20579;-72
2021/08/10 09:07:11;;;;;;;14.77;13.97;;;26.40;95.40;;;;;;4952890;29;20461;-73
2021/08/10 09:09:38;;;;;;;15.07;14.37;;;26.10;95.50;;;;;;4952870;29;20457;-74
2021/08/10 09:12:12;;;;;;;14.47;13.57;;;27.20;94.20;;;;;;4952553;29;20452;-74
2021/08/10 09:14:47;;;;;;;14.30;13.50;;;27.10;93.50;;;;;;4952725;29;20451;-73
2021/08/10 09:17:15;;;;;;;14.80;14.10;;;27.50;93.40;;;;;;4952497;29;20944;-74
2021/08/10 09:19:44;;;;;;;15.27;14.33;;;27.60;92.90;;;;;;4952588;29;20459;-73
2021/08/10 09:22:23;;;;;;;15.37;14.40;;;27.80;91.90;;;;;;4952257;29;21019;-73
2021/08/10 09:24:53;;;;;;;15.30;14.47;;;27.50;92.20;;;;;;4952916;29;20464;-74
2021/08/10 09:27:29;;;;;;;14.20;13.60;;;26.80;93.00;;;;;;4952670;29;20456;-74
2021/08/10 09:29:57;;;;;;;14.40;13.60;;;26.80;93.40;;;;;;4952648;29;20460;-74
2021/08/10 09:32:24;;;;;;;15.13;14.30;;;26.50;93.40;;;;;;4959722;28;20444;-74
2021/08/10 09:35:16;;;;;;;14.50;13.80;;;26.40;93.50;;;;;;4971811;28;20448;-74
2021/08/10 09:37:53;;;;;;;15.07;14.13;;;26.90;93.60;;;;;;4972118;28;20810;-73
2021/08/10 09:40:30;;;;;;;15.17;14.27;;;27.30;92.30;;;;;;4969287;28;20826;-74
2021/08/10 09:43:13;;;;;;;14.07;13.27;;;27.20;92.70;;;;;;4952692;29;20447;-74
2021/08/10 09:45:41;;;;;;;14.83;13.90;;;27.00;92.80;;;;;;4952206;29;20461;-74
2021/08/10 09:48:13;;;;;;;15.87;14.77;;;27.30;92.60;;;;;;4952970;29;20455;-74
2021/08/10 09:50:40;;;;;;;14.43;13.83;;;28.10;91.40;;;;;;4952501;29;20448;-73
2021/08/10 09:53:16;;;;;;;15.03;14.27;;;28.60;90.20;;;;;;4952866;29;20839;-73
2021/08/10 09:55:53;;;;;;;14.60;13.90;;;28.70;88.20;;;;;;4952646;29;20913;-74
2021/08/10 09:58:20;;;;;;;14.10;13.50;;;28.10;88.80;;;;;;4952357;29;20460;-73
2021/08/10 10:00:50;;;;;;;15.80;14.90;;;27.40;90.30;;;;;;4952179;29;20487;-73
2021/08/10 10:03:18;;;;;;;16.00;15.20;;;27.30;90.70;;;;;;4952236;28;20496;-74
2021/08/10 10:05:45;;;;;;;15.87;14.90;;;27.50;90.90;;;;;;4955912;29;20511;-73
2021/08/10 10:08:15;;;;;;;17.30;16.23;;;27.60;90.30;;;;;;4963902;28;20459;-73
2021/08/10 10:10:43;;;;;;;15.47;14.77;;;28.20;89.70;;;;;;4969964;28;20951;-73
2021/08/10 10:13:12;;;;;;;15.40;14.30;;;28.20;89.40;;;;;;4975166;28;20969;-74
2021/08/10 10:15:40;;;;;;;14.20;13.60;;;28.20;90.10;;;;;;4975462;28;20459;-71
2021/08/10 10:18:09;;;;;;;14.23;13.50;;;28.10;90.10;;;;;;4975363;28;20466;-73
2021/08/10 10:20:37;;;;;;;14.97;14.27;;;28.50;90.00;;;;;;4960852;28;20457;-73
2021/08/10 10:23:05;;;;;;;14.53;13.83;;;28.60;87.80;;;;;;4954208;29;20501;-73
2021/08/10 10:25:34;;;;;;;15.30;14.40;;;29.00;87.00;;;;;;4956189;29;20463;-72
2021/08/10 10:28:01;;;;;;;14.40;13.70;;;29.60;85.60;;;;;;4956071;29;20453;-74
2021/08/10 10:30:28;;;;;;;15.53;14.40;;;30.10;82.70;;;;;;4955590;29;20456;-73
2021/08/10 10:32:55;;;;;;;14.83;14.20;;;29.50;84.20;;;;;;4956089;29;20452;-73
2021/08/10 10:35:23;;;;;;;15.50;14.63;;;29.50;84.00;;;;;;4974621;28;20459;-73
2021/08/10 10:37:53;;;;;;;15.93;14.90;;;29.60;83.50;;;;;;4975198;28;20820;-73
2021/08/10 10:40:22;;;;;;;16.00;15.30;;;30.00;81.80;;;;;;4975051;28;20821;-73
2021/08/10 10:42:52;;;;;;;14.20;13.60;;;30.10;81.70;;;;;;4974847;28;20491;-74
2021/08/10 10:45:33;;;;;;;13.97;13.37;;;30.30;78.00;;;;;;4974908;28;20471;-74
2021/08/10 10:48:00;;;;;;;13.70;12.97;;;30.50;75.60;;;;;;4974634;28;20451;-73
2021/08/10 10:50:28;;;;;;;13.50;13.00;;;30.40;75.50;;;;;;4974986;28;20820;-73
2021/08/10 10:53:09;;;;;;;14.43;13.63;;;30.10;76.80;;;;;;4974836;28;20455;-73
2021/08/10 10:55:41;;;;;;;14.33;13.73;;;30.50;75.50;;;;;;4974931;28;20514;-73
2021/08/10 10:58:31;;;;;;;14.23;13.53;;;30.80;73.90;;;;;;4975158;28;20456;-73
2021/08/10 11:01:21;;;;;;;14.50;13.80;;;31.00;74.80;;;;;;4974189;28;20814;-72
2021/08/10 11:04:10;;;;;;;14.80;14.07;;;31.10;73.60;;;;;;4968833;28;20503;-74
2021/08/10 11:06:42;;;;;;;14.60;13.97;;;31.20;72.20;;;;;;4974551;28;20440;-73
2021/08/10 11:09:09;;;;;;;14.83;14.33;;;31.40;72.20;;;;;;4974550;28;20447;-73
2021/08/10 11:11:47;;;;;;;15.17;14.50;;;31.90;70.30;;;;;;4974531;28;20481;-73
2021/08/10 11:14:54;;;;;;;16.23;15.53;;;32.10;69.30;;;;;;4971503;28;20806;-73
2021/08/10 11:17:20;;;;;;;15.03;14.43;;;32.10;69.40;;;;;;4973578;28;20928;-73
2021/08/10 11:19:49;;;;;;;16.47;15.77;;;31.70;70.10;;;;;;4974070;28;20440;-73
2021/08/10 11:22:25;;;;;;;14.17;13.50;;;31.00;71.70;;;;;;4973875;28;20491;-73
2021/08/10 11:24:55;;;;;;;14.30;13.70;;;30.20;73.40;;;;;;4974382;28;20451;-73
2021/08/10 11:27:33;;;;;;;15.10;14.50;;;30.10;74.90;;;;;;4973886;28;20455;-73
2021/08/10 11:30:01;;;;;;;14.20;13.70;;;30.20;74.70;;;;;;4973909;28;20455;-72
2021/08/10 11:32:45;;;;;;;14.00;13.40;;;30.30;74.30;;;;;;4973535;28;20451;-73
2021/08/10 11:35:34;;;;;;;15.50;14.50;;;30.40;73.40;;;;;;4977034;28;20447;-72
2021/08/10 11:38:14;;;;;;;15.37;14.67;;;30.50;73.20;;;;;;4973568;28;20459;-72
2021/08/10 11:40:52;;;;;;;14.57;13.97;;;30.70;74.10;;;;;;4954274;29;20833;-72
2021/08/10 11:43:19;;;;;;;14.90;14.30;;;30.60;73.10;;;;;;4988927;28;20545;-73
2021/08/10 11:45:47;;;;;;;15.03;14.33;;;31.20;72.40;;;;;;4986667;28;20455;-73
2021/08/10 11:48:14;;;;;;;16.10;15.40;;;31.30;72.00;;;;;;4973458;28;20550;-72
2021/08/10 11:50:41;;;;;;;15.07;14.57;;;30.80;72.40;;;;;;4973885;28;20459;-72
2021/08/10 11:53:08;;;;;;;15.33;14.53;;;31.50;71.20;;;;;;4973341;28;20484;-73
2021/08/10 11:55:37;;;;;;;14.47;13.87;;;32.00;70.90;;;;;;4973545;28;20447;-72
2021/08/10 11:58:05;;;;;;;15.20;14.70;;;32.40;69.10;;;;;;4973412;28;20443;-72
2021/08/10 12:00:35;;;;;;;16.27;15.60;;;32.60;67.20;;;;;;4973061;28;20462;-72
2021/08/10 12:03:03;;;;;;;17.80;17.00;;;32.70;66.80;;;;;;4972599;28;20509;-72
2021/08/10 12:05:31;;;;;;;15.87;15.17;;;32.10;68.80;;;;;;4972691;28;20452;-72
2021/08/10 12:07:59;;;;;;;15.77;15.07;;;32.10;67.50;;;;;;4972657;28;20463;-73
2021/08/10 12:10:30;;;;;;;14.83;14.13;;;32.00;67.30;;;;;;4973116;28;20467;-73
2021/08/10 12:13:01;;;;;;;15.03;14.40;;;32.00;68.70;;;;;;4972937;28;20448;-72
2021/08/10 12:15:44;;;;;;;14.67;13.97;;;32.60;67.80;;;;;;4972465;28;20971;-72
2021/08/10 12:18:12;;;;;;;14.50;13.80;;;32.50;66.90;;;;;;4973085;28;20455;-72
2021/08/10 12:20:39;;;;;;;14.30;13.70;;;32.80;66.80;;;;;;4973009;28;20462;-72
2021/08/10 12:23:08;;;;;;;15.13;14.43;;;33.20;64.80;;;;;;4972708;28;20486;-72
2021/08/10 12:25:35;;;;;;;15.40;14.70;;;33.60;65.60;;;;;;4972493;28;20857;-73
2021/08/10 12:28:05;;;;;;;15.73;15.13;;;32.20;67.40;;;;;;4971815;28;20447;-72
2021/08/10 12:30:32;;;;;;;14.93;14.23;;;31.20;70.10;;;;;;4972360;28;20452;-73
2021/08/10 12:33:14;;;;;;;13.80;13.20;;;30.70;72.50;;;;;;4972790;28;20461;-72
2021/08/10 12:35:40;;;;;;;14.80;13.87;;;29.80;73.40;;;;;;4972461;28;20947;-72
2021/08/10 12:38:08;;;;;;;13.90;13.17;;;29.80;74.10;;;;;;4972575;28;20456;-72
2021/08/10 12:40:34;;;;;;;14.20;13.60;;;29.70;74.70;;;;;;4972506;28;20462;-72
2021/08/10 12:43:03;;;;;;;13.73;13.03;;;29.40;76.20;;;;;;4972342;28;21037;-72
2021/08/10 12:45:33;;;;;;;14.67;13.93;;;29.70;76.00;;;;;;4976332;28;20458;-73
2021/08/10 12:48:00;;;;;;;14.37;13.77;;;29.80;75.70;;;;;;4991431;28;20529;-72
2021/08/10 12:50:28;;;;;;;14.23;13.63;;;30.20;75.50;;;;;;4991937;28;20451;-72
2021/08/10 12:52:55;;;;;;;14.10;13.50;;;30.40;74.50;;;;;;4991693;28;20451;-72
2021/08/10 12:55:22;;;;;;;14.20;13.60;;;30.70;72.70;;;;;;4991324;28;20462;-72
2021/08/10 12:57:59;;;;;;;12.97;12.43;;;30.40;73.60;;;;;;4991482;28;20840;-72
2021/08/10 13:00:28;;;;;;;14.50;13.70;;;30.70;73.60;;;;;;4991523;28;20435;-72
2021/08/10 13:02:55;;;;;;;16.63;15.83;;;30.80;72.00;;;;;;4991536;28;20491;-72
2021/08/10 13:05:24;;;;;;;16.47;15.67;;;31.10;71.50;;;;;;4991764;28;20463;-72
2021/08/10 13:08:04;;;;;;;16.53;15.83;;;31.20;71.50;;;;;;4991625;28;20443;-72
2021/08/10 13:10:32;;;;;;;15.30;14.70;;;32.10;68.90;;;;;;4991160;28;20844;-73
2021/08/10 13:13:00;;;;;;;15.57;14.90;;;32.40;68.30;;;;;;4990942;28;20524;-72
2021/08/10 13:15:39;;;;;;;13.90;13.20;;;31.70;70.90;;;;;;4991249;28;20469;-72
2021/08/10 13:18:13;;;;;;;15.00;14.27;;;32.30;70.70;;;;;;4991408;28;20479;-73
2021/08/10 13:20:49;;;;;;;14.67;13.70;;;32.90;68.10;;;;;;4991610;28;20429;-73
2021/08/10 13:23:16;;;;;;;16.87;16.07;;;33.90;66.20;;;;;;4990954;28;20583;-73
2021/08/10 13:25:54;;;;;;;16.30;15.60;;;34.70;61.90;;;;;;4991115;28;20451;-72
2021/08/10 13:28:21;;;;;;;15.23;14.53;;;34.10;63.20;;;;;;4991321;28;20841;-72
2021/08/10 13:30:49;;;;;;;14.80;14.23;;;34.00;62.90;;;;;;4990890;28;20450;-72
2021/08/10 13:33:19;;;;;;;16.73;15.93;;;33.10;64.60;;;;;;4990453;28;20827;-72
2021/08/10 13:35:47;;;;;;;15.00;14.20;;;33.10;65.20;;;;;;4990702;28;20536;-72
2021/08/10 13:38:14;;;;;;;15.60;14.87;;;33.50;64.80;;;;;;4990354;28;20450;-72
2021/08/10 13:40:41;;;;;;;16.23;15.33;;;32.80;64.20;;;;;;4990763;28;20557;-72
2021/08/10 13:43:09;;;;;;;15.57;14.80;;;32.30;66.30;;;;;;4990895;28;20513;-72
2021/08/10 13:45:37;;;;;;;15.53;14.90;;;32.00;68.00;;;;;;4986165;28;20447;-72
2021/08/10 13:48:08;;;;;;;16.70;16.00;;;31.80;67.80;;;;;;4971388;28;20524;-72
2021/08/10 13:50:35;;;;;;;16.13;15.23;;;31.50;69.20;;;;;;4971500;28;20462;-72
2021/08/10 13:53:02;;;;;;;14.47;13.77;;;31.30;69.20;;;;;;4971257;28;20447;-72
2021/08/10 13:55:29;;;;;;;14.77;14.17;;;31.40;70.20;;;;;;4971163;28;20451;-72
2021/08/10 13:57:56;;;;;;;15.03;14.43;;;31.10;71.70;;;;;;4971459;28;20466;-72
2021/08/10 14:00:23;;;;;;;15.40;14.40;;;30.70;71.00;;;;;;4971112;28;20558;-72
2021/08/10 14:02:50;;;;;;;14.93;14.00;;;29.90;73.20;;;;;;4970874;28;20487;-72
2021/08/10 14:05:18;;;;;;;14.43;13.83;;;29.90;73.50;;;;;;4971105;28;20466;-72
2021/08/10 14:07:45;;;;;;;15.07;13.97;;;29.90;74.10;;;;;;4971021;28;20510;-72
2021/08/10 14:10:12;;;;;;;15.30;14.50;;;30.00;73.50;;;;;;4971086;28;20814;-72
2021/08/10 14:12:39;;;;;;;14.60;13.80;;;30.10;72.70;;;;;;4971080;28;20454;-71
2021/08/10 14:15:08;;;;;;;14.23;13.43;;;30.10;72.60;;;;;;4971171;28;20459;-72
2021/08/10 14:17:35;;;;;;;13.67;13.00;;;30.00;72.70;;;;;;4969055;28;20948;-72
2021/08/10 14:20:02;;;;;;;14.93;14.23;;;30.20;72.30;;;;;;4971066;28;20471;-72
2021/08/10 14:22:30;;;;;;;14.47;13.97;;;30.50;71.20;;;;;;4971391;28;20722;-73
2021/08/10 14:24:56;;;;;;;14.03;13.33;;;30.80;71.00;;;;;;4970901;28;20460;-73
2021/08/10 14:27:23;;;;;;;16.00;15.10;;;30.30;72.60;;;;;;4971245;28;20459;-73
2021/08/10 14:29:50;;;;;;;16.07;15.20;;;30.20;72.80;;;;;;4970894;28;20462;-72
2021/08/10 14:32:17;;;;;;;14.43;13.80;;;29.70;73.50;;;;;;4971147;28;21108;-72
2021/08/10 14:34:43;;;;;;;16.33;15.33;;;29.80;75.70;;;;;;4970962;28;20454;-73
2021/08/10 14:37:10;;;;;;;14.20;13.60;;;30.10;74.60;;;;;;4971048;28;20459;-72
2021/08/10 14:39:38;;;;;;;15.67;14.57;;;29.60;74.40;;;;;;4971289;28;20486;-72
2021/08/10 14:42:05;;;;;;;14.67;13.77;;;29.30;75.90;;;;;;4971144;28;20451;-72
2021/08/10 14:44:32;;;;;;;15.03;14.03;;;29.20;76.60;;;;;;4971056;28;20491;-73
2021/08/10 14:46:59;;;;;;;16.23;15.33;;;29.30;76.50;;;;;;4987104;28;20884;-73
2021/08/10 14:49:27;;;;;;;13.97;13.17;;;29.30;76.80;;;;;;4990825;28;20455;-72
2021/08/10 14:51:53;;;;;;;16.50;15.63;;;29.00;77.60;;;;;;4994323;28;20451;-72
2021/08/10 14:54:20;;;;;;;14.40;13.80;;;28.50;77.40;;;;;;4993918;28;20450;-72
2021/08/10 14:56:48;;;;;;;15.40;14.70;;;28.40;78.70;;;;;;4993859;28;20469;-72
2021/08/10 14:59:15;;;;;;;15.30;14.50;;;28.10;79.20;;;;;;4993990;28;20451;-72
2021/08/10 15:01:41;;;;;;;13.50;12.80;;;27.90;80.00;;;;;;4993425;28;20478;-72
2021/08/10 15:04:08;;;;;;;13.33;12.77;;;27.90;80.10;;;;;;4993981;28;20861;-72
2021/08/10 15:06:36;;;;;;;14.80;14.20;;;27.70;80.60;;;;;;4993942;28;20455;-72
2021/08/10 15:09:03;;;;;;;13.60;13.10;;;27.40;80.80;;;;;;4993605;28;20454;-72
2021/08/10 15:11:30;;;;;;;13.43;12.73;;;26.80;82.60;;;;;;4993704;28;20809;-72
2021/08/10 15:13:59;;;;;;;13.47;12.37;;;26.70;83.80;;;;;;4993594;28;20894;-72
2021/08/10 15:16:26;;;;;;;13.90;13.30;;;26.80;83.40;;;;;;4993751;28;20458;-73
2021/08/10 15:18:52;;;;;;;13.23;12.70;;;26.90;84.10;;;;;;4993507;28;20457;-72
2021/08/10 15:21:19;;;;;;;13.20;12.60;;;26.90;84.20;;;;;;4993709;28;20784;-72
2021/08/10 15:23:46;;;;;;;13.80;13.20;;;26.90;83.60;;;;;;4993455;28;20993;-73
2021/08/10 15:26:13;;;;;;;13.87;13.20;;;27.00;84.20;;;;;;4993502;28;20455;-73
2021/08/10 15:28:40;;;;;;;14.37;13.40;;;26.90;84.40;;;;;;4993573;28;20455;-72
2021/08/10 15:31:08;;;;;;;14.40;13.77;;;26.90;84.10;;;;;;4993471;28;20454;-73
2021/08/10 15:33:35;;;;;;;14.27;13.60;;;26.70;85.30;;;;;;4993483;28;20466;-73
2021/08/10 15:36:02;;;;;;;14.40;13.70;;;26.80;85.50;;;;;;4993208;28;20451;-72
2021/08/10 15:38:28;;;;;;;15.00;14.20;;;26.80;84.40;;;;;;4993178;28;20462;-73
2021/08/10 15:40:55;;;;;;;15.87;15.07;;;26.80;85.30;;;;;;4993215;28;20455;-72
2021/08/10 15:43:22;;;;;;;16.03;14.83;;;26.70;84.90;;;;;;4993140;28;20482;-73
2021/08/10 15:45:50;;;;;;;14.97;14.17;;;26.60;84.80;;;;;;4986586;28;20459;-72
2021/08/10 15:48:18;;;;;;;14.87;14.07;;;26.50;86.40;;;;;;4974133;28;20479;-73
2021/08/10 15:50:45;;;;;;;13.50;12.73;;;26.50;86.50;;;;;;4972060;28;20825;-72
2021/08/10 15:53:14;;;;;;;13.37;12.77;;;26.30;87.30;;;;;;4973896;28;20463;-71
2021/08/10 15:55:41;;;;;;;14.60;13.90;;;26.30;87.90;;;;;;4973888;28;20460;-72
2021/08/10 15:58:08;;;;;;;14.17;13.40;;;26.30;87.80;;;;;;4973652;28;20463;-71
2021/08/10 16:00:37;;;;;;;14.23;13.53;;;26.20;88.90;;;;;;4973326;28;20456;-72
2021/08/10 16:03:07;;;;;;;13.90;13.30;;;26.00;89.50;;;;;;4973096;28;20514;-72
2021/08/10 16:05:36;;;;;;;14.30;13.70;;;26.00;88.90;;;;;;4973663;28;20777;-71
2021/08/10 16:08:05;;;;;;;14.70;14.00;;;26.10;88.90;;;;;;4973148;28;20480;-71
2021/08/10 16:10:31;;;;;;;14.30;13.67;;;26.00;90.00;;;;;;4973280;28;20452;-71
2021/08/10 16:12:58;;;;;;;14.97;14.13;;;25.90;90.10;;;;;;4973219;28;20458;-71
2021/08/10 16:15:25;;;;;;;14.30;13.70;;;25.80;90.20;;;;;;4973256;28;20567;-69
2021/08/10 16:17:51;;;;;;;14.43;13.47;;;25.90;90.30;;;;;;4973236;28;20562;-72
2021/08/10 16:20:23;;;;;;;14.90;14.10;;;26.00;90.00;;;;;;4972947;28;20451;-71
2021/08/10 16:22:53;;;;;;;13.90;13.20;;;25.90;90.30;;;;;;4972752;28;20962;-72
2021/08/10 16:25:20;;;;;;;13.60;13.00;;;25.80;90.20;;;;;;4970856;28;20448;-71
2021/08/10 16:27:46;;;;;;;15.47;14.10;;;25.70;90.60;;;;;;4972535;28;20451;-71
2021/08/10 16:30:14;;;;;;;14.13;13.43;;;25.50;90.50;;;;;;4972255;28;20459;-71
2021/08/10 16:32:40;;;;;;;12.93;12.53;;;25.50;91.00;;;;;;4972725;28;20459;-71
2021/08/10 16:35:08;;;;;;;13.80;13.00;;;25.50;90.70;;;;;;4972880;28;20462;-71
2021/08/10 16:37:36;;;;;;;14.63;13.63;;;25.40;90.80;;;;;;4972826;28;20451;-71